BA167 EGLL-LIRF
Flight info
| Callsign | BA167 |
|---|---|
| Flight time | 1h 54m |
| Altitude | 37000 |
| Route | MODMI M185 MID L612 BOGNA UL612 OGULO DCT OKASI DCT OKEKO DCT MOU DCT MADIV DCT MOKIP DCT TUFTA DCT KOGAS DCT MEDAM DCT NITAM DCT MOGBO DCT ELB/N0480F360 DCT ELKAP |
| Aircraft | VC10/H-SDFIHRWY/C |
Departure
| Time | 2026-05-05 11:33 |
|---|---|
| Airport | London Heathrow Airport (EGLL) |
Arrival
| Time | 2026-05-05 13:28 |
|---|---|
| Airport | Rome–Fiumicino Leonardo da Vinci International Airport (LIRF) |
| Time | Latitude | Longitude | Altitude | Speed | Heading |
|---|---|---|---|---|---|
| 2026-05-05 10:45 | 51.46138 | -0.44435 | 94 ft | 0 kts | 297° |
| 2026-05-05 10:49 | 51.46138 | -0.44436 | 94 ft | 0 kts | 297° |
| 2026-05-05 10:53 | 51.46138 | -0.44437 | 94 ft | 0 kts | 297° |
| 2026-05-05 10:57 | 51.46138 | -0.44438 | 94 ft | 0 kts | 297° |
| 2026-05-05 10:58 | 51.46139 | -0.44438 | 94 ft | 0 kts | 297° |
| 2026-05-05 11:01 | 51.46139 | -0.44439 | 94 ft | 0 kts | 297° |
| 2026-05-05 11:05 | 51.46139 | -0.44440 | 94 ft | 0 kts | 297° |
| 2026-05-05 11:20 | 51.46139 | -0.44439 | 94 ft | 0 kts | 297° |
| 2026-05-05 11:20 | 51.46133 | -0.44420 | 94 ft | 2 kts | 302° |
| 2026-05-05 11:20 | 51.46121 | -0.44394 | 94 ft | 1 kts | 312° |
| 2026-05-05 11:21 | 51.46107 | -0.44372 | 94 ft | 7 kts | 328° |
| 2026-05-05 11:21 | 51.46090 | -0.44359 | 94 ft | 11 kts | 360° |
| 2026-05-05 11:21 | 51.46078 | -0.44361 | 94 ft | 10 kts | 23° |
| 2026-05-05 11:25 | 51.46080 | -0.44360 | 94 ft | 3 kts | 23° |
| 2026-05-05 11:25 | 51.46159 | -0.44309 | 94 ft | 22 kts | 20° |
| 2026-05-05 11:26 | 51.46303 | -0.44225 | 94 ft | 14 kts | 346° |
| 2026-05-05 11:26 | 51.46326 | -0.44397 | 94 ft | 25 kts | 272° |
| 2026-05-05 11:26 | 51.46327 | -0.44755 | 94 ft | 35 kts | 271° |
| 2026-05-05 11:26 | 51.46324 | -0.45134 | 94 ft | 35 kts | 269° |
| 2026-05-05 11:27 | 51.46326 | -0.45515 | 94 ft | 33 kts | 272° |
| 2026-05-05 11:27 | 51.46328 | -0.45881 | 94 ft | 32 kts | 269° |
| 2026-05-05 11:27 | 51.46325 | -0.46229 | 94 ft | 30 kts | 269° |
| 2026-05-05 11:27 | 51.46324 | -0.46553 | 94 ft | 27 kts | 269° |
| 2026-05-05 11:28 | 51.46322 | -0.46843 | 94 ft | 25 kts | 270° |
| 2026-05-05 11:28 | 51.46322 | -0.47099 | 94 ft | 21 kts | 269° |
| 2026-05-05 11:28 | 51.46322 | -0.47245 | 94 ft | 11 kts | 270° |
| 2026-05-05 11:28 | 51.46326 | -0.47346 | 94 ft | 8 kts | 280° |
| 2026-05-05 11:29 | 51.46336 | -0.47448 | 94 ft | 14 kts | 274° |
| 2026-05-05 11:29 | 51.46335 | -0.47621 | 94 ft | 14 kts | 251° |
| 2026-05-05 11:29 | 51.46277 | -0.47795 | 94 ft | 22 kts | 238° |
| 2026-05-05 11:29 | 51.46253 | -0.48091 | 94 ft | 33 kts | 267° |
| 2026-05-05 11:30 | 51.46250 | -0.48513 | 94 ft | 37 kts | 271° |
| 2026-05-05 11:30 | 51.46293 | -0.48699 | 94 ft | 0 kts | 324° |
| 2026-05-05 11:30 | 51.46293 | -0.48700 | 94 ft | 0 kts | 324° |
| 2026-05-05 11:31 | 51.46299 | -0.48706 | 94 ft | 7 kts | 327° |
| 2026-05-05 11:31 | 51.46407 | -0.48754 | 94 ft | 18 kts | 359° |
| 2026-05-05 11:31 | 51.46479 | -0.48657 | 94 ft | 13 kts | 88° |
| 2026-05-05 11:31 | 51.46480 | -0.48640 | 94 ft | 0 kts | 89° |
| 2026-05-05 11:32 | 51.46480 | -0.48639 | 94 ft | 1 kts | 89° |
| 2026-05-05 11:33 | 51.46482 | -0.48267 | 94 ft | 70 kts | 90° |
| 2026-05-05 11:33 | 51.46482 | -0.47077 | 100 ft | 141 kts | 88° |
| 2026-05-05 11:33 | 51.46488 | -0.45388 | 731 ft | 158 kts | 88° |
| 2026-05-05 11:33 | 51.46494 | -0.43409 | 1278 ft | 204 kts | 88° |
| 2026-05-05 11:34 | 51.46414 | -0.40889 | 1857 ft | 246 kts | 112° |
| 2026-05-05 11:34 | 51.45365 | -0.38500 | 2544 ft | 268 kts | 139° |
| 2026-05-05 11:34 | 51.43762 | -0.37423 | 3044 ft | 250 kts | 171° |
| 2026-05-05 11:34 | 51.41970 | -0.37552 | 3183 ft | 267 kts | 187° |
| 2026-05-05 11:35 | 51.40167 | -0.37944 | 3818 ft | 252 kts | 188° |
| 2026-05-05 11:35 | 51.38522 | -0.38367 | 4610 ft | 229 kts | 189° |
| 2026-05-05 11:35 | 51.36901 | -0.38810 | 5153 ft | 252 kts | 190° |
| 2026-05-05 11:35 | 51.35042 | -0.39360 | 5575 ft | 281 kts | 193° |
| 2026-05-05 11:36 | 51.33295 | -0.40288 | 6114 ft | 254 kts | 202° |
| 2026-05-05 11:36 | 51.31619 | -0.41453 | 6189 ft | 282 kts | 205° |
| 2026-05-05 11:36 | 51.29789 | -0.42988 | 7198 ft | 307 kts | 210° |
| 2026-05-05 11:36 | 51.27897 | -0.44654 | 8650 ft | 325 kts | 209° |
| 2026-05-05 11:37 | 51.25763 | -0.46518 | 8760 ft | 367 kts | 209° |
| 2026-05-05 11:37 | 51.23495 | -0.48493 | 9733 ft | 377 kts | 208° |
| 2026-05-05 11:37 | 51.21151 | -0.50376 | 10707 ft | 386 kts | 206° |
| 2026-05-05 11:37 | 51.18781 | -0.52203 | 11737 ft | 369 kts | 206° |
| 2026-05-05 11:38 | 51.16496 | -0.53949 | 12861 ft | 361 kts | 206° |
| 2026-05-05 11:38 | 51.14246 | -0.55669 | 14106 ft | 357 kts | 205° |
| 2026-05-05 11:38 | 51.12008 | -0.57385 | 15319 ft | 361 kts | 205° |
| 2026-05-05 11:38 | 51.09666 | -0.59066 | 15938 ft | 375 kts | 200° |
| 2026-05-05 11:39 | 51.07080 | -0.59625 | 16438 ft | 378 kts | 177° |
| 2026-05-05 11:39 | 51.04536 | -0.58619 | 16893 ft | 381 kts | 159° |
| 2026-05-05 11:39 | 51.02057 | -0.57034 | 16988 ft | 385 kts | 158° |
| 2026-05-05 11:39 | 50.99661 | -0.55145 | 17000 ft | 383 kts | 151° |
| 2026-05-05 11:40 | 50.97385 | -0.52982 | 17001 ft | 381 kts | 148° |
| 2026-05-05 11:40 | 50.95185 | -0.50703 | 17259 ft | 374 kts | 146° |
| 2026-05-05 11:40 | 50.93024 | -0.48395 | 17608 ft | 375 kts | 146° |
| 2026-05-05 11:40 | 50.90856 | -0.46085 | 17957 ft | 377 kts | 146° |
| 2026-05-05 11:41 | 50.88671 | -0.43779 | 18440 ft | 373 kts | 146° |
| 2026-05-05 11:41 | 50.86515 | -0.41510 | 19216 ft | 373 kts | 146° |
| 2026-05-05 11:41 | 50.84345 | -0.39226 | 19970 ft | 377 kts | 146° |
| 2026-05-05 11:41 | 50.82147 | -0.36912 | 20724 ft | 382 kts | 146° |
| 2026-05-05 11:42 | 50.79927 | -0.34570 | 21477 ft | 386 kts | 146° |
| 2026-05-05 11:42 | 50.77676 | -0.32206 | 22230 ft | 390 kts | 146° |
| 2026-05-05 11:42 | 50.75403 | -0.29831 | 22983 ft | 394 kts | 147° |
| 2026-05-05 11:42 | 50.73103 | -0.27437 | 23736 ft | 398 kts | 147° |
| 2026-05-05 11:43 | 50.70779 | -0.25024 | 24489 ft | 401 kts | 147° |
| 2026-05-05 11:43 | 50.68437 | -0.22595 | 25241 ft | 404 kts | 147° |
| 2026-05-05 11:43 | 50.66086 | -0.20154 | 25993 ft | 405 kts | 147° |
| 2026-05-05 11:43 | 50.63739 | -0.17707 | 26743 ft | 405 kts | 147° |
| 2026-05-05 11:44 | 50.61382 | -0.15268 | 27494 ft | 404 kts | 148° |
| 2026-05-05 11:44 | 50.59036 | -0.12846 | 28243 ft | 402 kts | 148° |
| 2026-05-05 11:44 | 50.56703 | -0.10433 | 28995 ft | 400 kts | 148° |
| 2026-05-05 11:44 | 50.54386 | -0.08027 | 29633 ft | 400 kts | 148° |
| 2026-05-05 11:45 | 50.52058 | -0.05630 | 30200 ft | 400 kts | 148° |
| 2026-05-05 11:45 | 50.49729 | -0.03234 | 30751 ft | 401 kts | 148° |
| 2026-05-05 11:45 | 50.47395 | -0.00831 | 31302 ft | 400 kts | 148° |
| 2026-05-05 11:45 | 50.45068 | 0.01565 | 31849 ft | 400 kts | 148° |
| 2026-05-05 11:46 | 50.42731 | 0.03957 | 32271 ft | 403 kts | 148° |
| 2026-05-05 11:46 | 50.40367 | 0.06367 | 32573 ft | 408 kts | 148° |
| 2026-05-05 11:46 | 50.37973 | 0.08810 | 32855 ft | 413 kts | 148° |
| 2026-05-05 11:46 | 50.35551 | 0.11283 | 33109 ft | 419 kts | 148° |
| 2026-05-05 11:47 | 50.33087 | 0.13797 | 33322 ft | 425 kts | 148° |
| 2026-05-05 11:47 | 50.30591 | 0.16339 | 33526 ft | 432 kts | 148° |
| 2026-05-05 11:47 | 50.28058 | 0.18916 | 33729 ft | 437 kts | 148° |
| 2026-05-05 11:47 | 50.25489 | 0.21528 | 33933 ft | 443 kts | 148° |
| 2026-05-05 11:48 | 50.20264 | 0.26837 | 34337 ft | 453 kts | 148° |
| 2026-05-05 11:48 | 50.17620 | 0.29564 | 34538 ft | 458 kts | 148° |
| 2026-05-05 11:48 | 50.14951 | 0.32326 | 34740 ft | 462 kts | 148° |
| 2026-05-05 11:49 | 50.12257 | 0.35103 | 34941 ft | 466 kts | 148° |
| 2026-05-05 11:49 | 50.09537 | 0.37893 | 35142 ft | 470 kts | 148° |
| 2026-05-05 11:49 | 50.06795 | 0.40700 | 35344 ft | 474 kts | 148° |
| 2026-05-05 11:49 | 50.04029 | 0.43531 | 35579 ft | 476 kts | 148° |
| 2026-05-05 11:50 | 50.01262 | 0.46371 | 35886 ft | 477 kts | 148° |
| 2026-05-05 11:50 | 49.98493 | 0.49211 | 36207 ft | 477 kts | 148° |
| 2026-05-05 11:50 | 49.95721 | 0.52056 | 36532 ft | 477 kts | 148° |
| 2026-05-05 11:50 | 49.92950 | 0.54892 | 36856 ft | 477 kts | 148° |
| 2026-05-05 11:51 | 49.90179 | 0.57710 | 37179 ft | 476 kts | 148° |
| 2026-05-05 11:51 | 49.87407 | 0.60520 | 37504 ft | 476 kts | 148° |
| 2026-05-05 11:51 | 49.84666 | 0.63389 | 37826 ft | 476 kts | 146° |
| 2026-05-05 11:51 | 49.82061 | 0.66545 | 38151 ft | 475 kts | 142° |
| 2026-05-05 11:52 | 49.79520 | 0.69820 | 38404 ft | 477 kts | 142° |
| 2026-05-05 11:52 | 49.76959 | 0.73149 | 38335 ft | 484 kts | 142° |
| 2026-05-05 11:52 | 49.71713 | 0.79863 | 38614 ft | 489 kts | 142° |
| 2026-05-05 11:53 | 49.66404 | 0.86569 | 38795 ft | 496 kts | 143° |
| 2026-05-05 11:53 | 49.61031 | 0.93285 | 38882 ft | 505 kts | 143° |
| 2026-05-05 11:54 | 49.55510 | 1.00146 | 39397 ft | 503 kts | 143° |
| 2026-05-05 11:54 | 49.52770 | 1.03546 | 39127 ft | 514 kts | 143° |
| 2026-05-05 11:54 | 49.49964 | 1.07026 | 39286 ft | 514 kts | 143° |
| 2026-05-05 11:55 | 49.47179 | 1.10470 | 38815 ft | 530 kts | 143° |
| 2026-05-05 11:55 | 49.44309 | 1.14020 | 38857 ft | 533 kts | 143° |
| 2026-05-05 11:55 | 49.38491 | 1.21198 | 38869 ft | 538 kts | 143° |
| 2026-05-05 11:56 | 49.30314 | 1.31263 | 38874 ft | 535 kts | 143° |
| 2026-05-05 11:57 | 49.21703 | 1.41855 | 38872 ft | 532 kts | 143° |
| 2026-05-05 11:57 | 49.15916 | 1.48913 | 38870 ft | 532 kts | 143° |
| 2026-05-05 11:58 | 49.10126 | 1.55944 | 38868 ft | 531 kts | 143° |
| 2026-05-05 11:58 | 49.04340 | 1.62949 | 38862 ft | 531 kts | 143° |
| 2026-05-05 11:59 | 48.98544 | 1.69944 | 38856 ft | 531 kts | 143° |
| 2026-05-05 11:59 | 48.92742 | 1.76928 | 38852 ft | 531 kts | 143° |
| 2026-05-05 12:00 | 48.86943 | 1.83886 | 38848 ft | 531 kts | 143° |
| 2026-05-05 12:00 | 48.81145 | 1.90837 | 38846 ft | 531 kts | 143° |
| 2026-05-05 12:01 | 48.75352 | 1.97787 | 38844 ft | 531 kts | 143° |
| 2026-05-05 12:01 | 48.69548 | 2.04717 | 38843 ft | 531 kts | 144° |
| 2026-05-05 12:02 | 48.63736 | 2.11607 | 38843 ft | 531 kts | 144° |
| 2026-05-05 12:02 | 48.57916 | 2.18483 | 38833 ft | 531 kts | 144° |
| 2026-05-05 12:03 | 48.52467 | 2.26028 | 38822 ft | 533 kts | 136° |
| 2026-05-05 12:03 | 48.47337 | 2.34125 | 38817 ft | 533 kts | 136° |
| 2026-05-05 12:04 | 48.42161 | 2.42129 | 38816 ft | 533 kts | 136° |
| 2026-05-05 12:04 | 48.36947 | 2.50050 | 38816 ft | 533 kts | 137° |
| 2026-05-05 12:05 | 48.31747 | 2.57876 | 38817 ft | 532 kts | 137° |
| 2026-05-05 12:05 | 48.26141 | 2.65009 | 38817 ft | 527 kts | 152° |
| 2026-05-05 12:06 | 48.19587 | 2.69910 | 38820 ft | 527 kts | 155° |
| 2026-05-05 12:06 | 48.13090 | 2.75025 | 38818 ft | 528 kts | 153° |
| 2026-05-05 12:07 | 48.06617 | 2.80182 | 38818 ft | 526 kts | 156° |
| 2026-05-05 12:07 | 47.99871 | 2.84401 | 38819 ft | 525 kts | 160° |
| 2026-05-05 12:08 | 47.93119 | 2.88561 | 38819 ft | 525 kts | 159° |
| 2026-05-05 12:08 | 47.86389 | 2.92825 | 38823 ft | 525 kts | 159° |
| 2026-05-05 12:09 | 47.79672 | 2.97094 | 38827 ft | 525 kts | 158° |
| 2026-05-05 12:09 | 47.72940 | 3.01351 | 38829 ft | 525 kts | 159° |
| 2026-05-05 12:10 | 47.66210 | 3.05576 | 38831 ft | 525 kts | 159° |
| 2026-05-05 12:10 | 47.59481 | 3.09788 | 38833 ft | 525 kts | 159° |
| 2026-05-05 12:11 | 47.52750 | 3.13989 | 38834 ft | 525 kts | 159° |
| 2026-05-05 12:11 | 47.46009 | 3.18185 | 38751 ft | 523 kts | 159° |
| 2026-05-05 12:12 | 47.42621 | 3.20291 | 37844 ft | 534 kts | 159° |
| 2026-05-05 12:12 | 47.39283 | 3.22375 | 38335 ft | 512 kts | 159° |
| 2026-05-05 12:12 | 47.36022 | 3.24401 | 38629 ft | 508 kts | 159° |
| 2026-05-05 12:12 | 47.32726 | 3.26339 | 38734 ft | 511 kts | 160° |
| 2026-05-05 12:13 | 47.26080 | 3.30321 | 38837 ft | 519 kts | 159° |
| 2026-05-05 12:13 | 47.19374 | 3.34369 | 38844 ft | 523 kts | 160° |
| 2026-05-05 12:14 | 47.12619 | 3.38401 | 38844 ft | 524 kts | 160° |
| 2026-05-05 12:14 | 47.05859 | 3.42418 | 38843 ft | 524 kts | 160° |
| 2026-05-05 12:15 | 46.99096 | 3.46432 | 38845 ft | 524 kts | 160° |
| 2026-05-05 12:15 | 46.92335 | 3.50456 | 38846 ft | 524 kts | 160° |
| 2026-05-05 12:16 | 46.85570 | 3.54480 | 38848 ft | 526 kts | 160° |
| 2026-05-05 12:16 | 46.78765 | 3.58494 | 38850 ft | 530 kts | 160° |
| 2026-05-05 12:17 | 46.75490 | 3.60845 | 38845 ft | 536 kts | 149° |
| 2026-05-05 12:17 | 46.72661 | 3.64544 | 38849 ft | 545 kts | 133° |
| 2026-05-05 12:17 | 46.70531 | 3.69144 | 38857 ft | 552 kts | 122° |
| 2026-05-05 12:17 | 46.68930 | 3.74259 | 38856 ft | 557 kts | 113° |
| 2026-05-05 12:18 | 46.66791 | 3.85142 | 38853 ft | 561 kts | 106° |
| 2026-05-05 12:18 | 46.65064 | 3.96145 | 38849 ft | 560 kts | 105° |
| 2026-05-05 12:19 | 46.63231 | 4.07188 | 38848 ft | 559 kts | 107° |
| 2026-05-05 12:19 | 46.61311 | 4.18200 | 38847 ft | 559 kts | 107° |
| 2026-05-05 12:20 | 46.59388 | 4.29147 | 38848 ft | 559 kts | 107° |
| 2026-05-05 12:20 | 46.57494 | 4.39851 | 38847 ft | 559 kts | 107° |
| 2026-05-05 12:21 | 46.55558 | 4.50791 | 38848 ft | 559 kts | 107° |
| 2026-05-05 12:21 | 46.53629 | 4.61719 | 38849 ft | 559 kts | 107° |
| 2026-05-05 12:22 | 46.51685 | 4.72636 | 38850 ft | 559 kts | 107° |
| 2026-05-05 12:22 | 46.49714 | 4.83541 | 38851 ft | 558 kts | 107° |
| 2026-05-05 12:23 | 46.47728 | 4.94444 | 38852 ft | 558 kts | 108° |
| 2026-05-05 12:23 | 46.45737 | 5.05309 | 38860 ft | 558 kts | 108° |
| 2026-05-05 12:24 | 46.43744 | 5.16192 | 38866 ft | 558 kts | 108° |
| 2026-05-05 12:24 | 46.41757 | 5.27088 | 38870 ft | 559 kts | 108° |
| 2026-05-05 12:25 | 46.39747 | 5.37950 | 38873 ft | 559 kts | 108° |
| 2026-05-05 12:25 | 46.38403 | 5.43190 | 38869 ft | 552 kts | 120° |
| 2026-05-05 12:25 | 46.36284 | 5.47791 | 38885 ft | 547 kts | 131° |
| 2026-05-05 12:26 | 46.31371 | 5.56188 | 38890 ft | 547 kts | 135° |
| 2026-05-05 12:26 | 46.26353 | 5.64444 | 38891 ft | 547 kts | 134° |
| 2026-05-05 12:27 | 46.21365 | 5.72720 | 38902 ft | 546 kts | 135° |
| 2026-05-05 12:27 | 46.16251 | 5.80815 | 38908 ft | 546 kts | 135° |
| 2026-05-05 12:28 | 46.11228 | 5.89034 | 38913 ft | 547 kts | 135° |
| 2026-05-05 12:28 | 46.06263 | 5.97341 | 38920 ft | 547 kts | 134° |
| 2026-05-05 12:29 | 46.01298 | 6.05637 | 38926 ft | 547 kts | 134° |
| 2026-05-05 12:29 | 45.96325 | 6.13898 | 38932 ft | 547 kts | 135° |
| 2026-05-05 12:30 | 45.91368 | 6.22104 | 38932 ft | 547 kts | 135° |
| 2026-05-05 12:30 | 45.86348 | 6.30404 | 38934 ft | 547 kts | 135° |
| 2026-05-05 12:31 | 45.81395 | 6.38592 | 38934 ft | 547 kts | 135° |
| 2026-05-05 12:31 | 45.75664 | 6.45676 | 38939 ft | 539 kts | 148° |
| 2026-05-05 12:32 | 45.69549 | 6.51726 | 38947 ft | 538 kts | 149° |
| 2026-05-05 12:32 | 45.63404 | 6.57843 | 38954 ft | 538 kts | 149° |
| 2026-05-05 12:33 | 45.57288 | 6.64022 | 38962 ft | 538 kts | 148° |
| 2026-05-05 12:33 | 45.51189 | 6.70231 | 38969 ft | 538 kts | 148° |
| 2026-05-05 12:34 | 45.45076 | 6.76390 | 38974 ft | 538 kts | 149° |
| 2026-05-05 12:34 | 45.38964 | 6.82527 | 38978 ft | 538 kts | 149° |
| 2026-05-05 12:35 | 45.33877 | 6.87620 | 38984 ft | 538 kts | 149° |
| 2026-05-05 12:35 | 45.27765 | 6.93739 | 38990 ft | 538 kts | 149° |
| 2026-05-05 12:36 | 45.21973 | 7.00561 | 38999 ft | 543 kts | 142° |
| 2026-05-05 12:36 | 45.16534 | 7.08024 | 39012 ft | 545 kts | 140° |
| 2026-05-05 12:37 | 45.11160 | 7.15565 | 39015 ft | 546 kts | 139° |
| 2026-05-05 12:37 | 45.06475 | 7.24149 | 39017 ft | 554 kts | 129° |
| 2026-05-05 12:38 | 45.02189 | 7.33218 | 39010 ft | 554 kts | 128° |
| 2026-05-05 12:38 | 44.97818 | 7.42151 | 39013 ft | 551 kts | 131° |
| 2026-05-05 12:39 | 44.92663 | 7.50050 | 39020 ft | 545 kts | 140° |
| 2026-05-05 12:39 | 44.87213 | 7.57473 | 39014 ft | 545 kts | 140° |
| 2026-05-05 12:40 | 44.81803 | 7.64950 | 39001 ft | 545 kts | 140° |
| 2026-05-05 12:40 | 44.76419 | 7.72467 | 38999 ft | 545 kts | 140° |
| 2026-05-05 12:41 | 44.71025 | 7.79942 | 38992 ft | 544 kts | 140° |
| 2026-05-05 12:41 | 44.65624 | 7.87403 | 38991 ft | 544 kts | 140° |
| 2026-05-05 12:42 | 44.60223 | 7.94840 | 38990 ft | 544 kts | 140° |
| 2026-05-05 12:42 | 44.54814 | 8.02266 | 38988 ft | 544 kts | 140° |
| 2026-05-05 12:43 | 44.49402 | 8.09679 | 38984 ft | 544 kts | 140° |
| 2026-05-05 12:43 | 44.43986 | 8.17098 | 38983 ft | 544 kts | 140° |
| 2026-05-05 12:44 | 44.38620 | 8.24455 | 38974 ft | 544 kts | 140° |
| 2026-05-05 12:44 | 44.33194 | 8.31835 | 38970 ft | 544 kts | 140° |
| 2026-05-05 12:45 | 44.27763 | 8.39193 | 38969 ft | 544 kts | 140° |
| 2026-05-05 12:45 | 44.22328 | 8.46538 | 38968 ft | 544 kts | 140° |
| 2026-05-05 12:46 | 44.16888 | 8.53867 | 38974 ft | 544 kts | 140° |
| 2026-05-05 12:46 | 44.11441 | 8.61190 | 38979 ft | 544 kts | 140° |
| 2026-05-05 12:47 | 44.05993 | 8.68490 | 38979 ft | 544 kts | 140° |
| 2026-05-05 12:47 | 44.00536 | 8.75795 | 38976 ft | 545 kts | 140° |
| 2026-05-05 12:48 | 43.95081 | 8.83106 | 38974 ft | 545 kts | 141° |
| 2026-05-05 12:48 | 43.89601 | 8.90397 | 38973 ft | 546 kts | 141° |
| 2026-05-05 12:49 | 43.84109 | 8.97680 | 38974 ft | 547 kts | 141° |
| 2026-05-05 12:49 | 43.78599 | 9.04967 | 38976 ft | 548 kts | 141° |
| 2026-05-05 12:50 | 43.73080 | 9.12242 | 38978 ft | 548 kts | 141° |
| 2026-05-05 12:50 | 43.67551 | 9.19513 | 38980 ft | 549 kts | 141° |
| 2026-05-05 12:51 | 43.62021 | 9.26787 | 38980 ft | 549 kts | 141° |
| 2026-05-05 12:51 | 43.56529 | 9.34012 | 38981 ft | 549 kts | 141° |
| 2026-05-05 12:52 | 43.50981 | 9.41254 | 38982 ft | 549 kts | 141° |
| 2026-05-05 12:52 | 43.45423 | 9.48488 | 38984 ft | 550 kts | 141° |
| 2026-05-05 12:53 | 43.39862 | 9.55707 | 38991 ft | 550 kts | 141° |
| 2026-05-05 12:53 | 43.34293 | 9.62915 | 38992 ft | 550 kts | 141° |
| 2026-05-05 12:54 | 43.25928 | 9.73711 | 38994 ft | 550 kts | 141° |
| 2026-05-05 12:55 | 43.20348 | 9.80897 | 38995 ft | 551 kts | 141° |
| 2026-05-05 12:55 | 43.14758 | 9.88096 | 38995 ft | 551 kts | 141° |
| 2026-05-05 12:55 | 43.11948 | 9.91699 | 38608 ft | 558 kts | 142° |
| 2026-05-05 12:56 | 43.09110 | 9.95331 | 38114 ft | 558 kts | 142° |
| 2026-05-05 12:56 | 43.06273 | 9.98948 | 37528 ft | 556 kts | 142° |
| 2026-05-05 12:56 | 43.03449 | 10.02543 | 36830 ft | 552 kts | 142° |
| 2026-05-05 12:56 | 43.00661 | 10.06101 | 36110 ft | 546 kts | 142° |
| 2026-05-05 12:57 | 42.97903 | 10.09614 | 35386 ft | 538 kts | 142° |
| 2026-05-05 12:57 | 42.95185 | 10.13079 | 34661 ft | 531 kts | 142° |
| 2026-05-05 12:57 | 42.92498 | 10.16502 | 33934 ft | 524 kts | 142° |
| 2026-05-05 12:57 | 42.89847 | 10.19852 | 33210 ft | 516 kts | 142° |
| 2026-05-05 12:58 | 42.87233 | 10.23155 | 32485 ft | 509 kts | 142° |
| 2026-05-05 12:58 | 42.84698 | 10.26361 | 31770 ft | 502 kts | 142° |
| 2026-05-05 12:58 | 42.82150 | 10.29580 | 31042 ft | 494 kts | 142° |
| 2026-05-05 12:58 | 42.79644 | 10.32744 | 30316 ft | 488 kts | 142° |
| 2026-05-05 12:59 | 42.77225 | 10.35925 | 29587 ft | 486 kts | 137° |
| 2026-05-05 12:59 | 42.75400 | 10.39818 | 28850 ft | 492 kts | 118° |
| 2026-05-05 12:59 | 42.74480 | 10.44303 | 28136 ft | 494 kts | 103° |
| 2026-05-05 13:00 | 42.73395 | 10.53435 | 26703 ft | 486 kts | 99° |
| 2026-05-05 13:00 | 42.73074 | 10.58022 | 25974 ft | 482 kts | 96° |
| 2026-05-05 13:01 | 42.70400 | 10.70612 | 23802 ft | 457 kts | 124° |
| 2026-05-05 13:01 | 42.68686 | 10.74208 | 23083 ft | 451 kts | 127° |
| 2026-05-05 13:01 | 42.66964 | 10.77739 | 22359 ft | 446 kts | 127° |
| 2026-05-05 13:01 | 42.65314 | 10.81264 | 21637 ft | 440 kts | 126° |
| 2026-05-05 13:02 | 42.63704 | 10.84779 | 20993 ft | 432 kts | 126° |
| 2026-05-05 13:02 | 42.62152 | 10.88184 | 20871 ft | 419 kts | 126° |
| 2026-05-05 13:02 | 42.60614 | 10.91543 | 20659 ft | 419 kts | 126° |
| 2026-05-05 13:02 | 42.59071 | 10.94889 | 20436 ft | 418 kts | 126° |
| 2026-05-05 13:03 | 42.57531 | 10.98228 | 20212 ft | 417 kts | 126° |
| 2026-05-05 13:03 | 42.55993 | 11.01554 | 19987 ft | 415 kts | 126° |
| 2026-05-05 13:03 | 42.54460 | 11.04868 | 19762 ft | 414 kts | 126° |
| 2026-05-05 13:03 | 42.52936 | 11.08165 | 19538 ft | 412 kts | 126° |
| 2026-05-05 13:04 | 42.51411 | 11.11454 | 19313 ft | 411 kts | 126° |
| 2026-05-05 13:04 | 42.49900 | 11.14704 | 19154 ft | 408 kts | 126° |
| 2026-05-05 13:04 | 42.48392 | 11.17953 | 19072 ft | 406 kts | 126° |
| 2026-05-05 13:04 | 42.46885 | 11.21196 | 19053 ft | 405 kts | 126° |
| 2026-05-05 13:05 | 42.45453 | 11.24484 | 19042 ft | 408 kts | 120° |
| 2026-05-05 13:05 | 42.44649 | 11.28201 | 19057 ft | 415 kts | 104° |
| 2026-05-05 13:05 | 42.44124 | 11.32052 | 19057 ft | 416 kts | 102° |
| 2026-05-05 13:05 | 42.43686 | 11.35922 | 19052 ft | 416 kts | 101° |
| 2026-05-05 13:06 | 42.43269 | 11.39808 | 18845 ft | 420 kts | 101° |
| 2026-05-05 13:06 | 42.42843 | 11.43727 | 18262 ft | 421 kts | 101° |
| 2026-05-05 13:06 | 42.42406 | 11.47632 | 17469 ft | 419 kts | 101° |
| 2026-05-05 13:06 | 42.41878 | 11.51426 | 16622 ft | 412 kts | 108° |
| 2026-05-05 13:07 | 42.40595 | 11.54853 | 15756 ft | 398 kts | 130° |
| 2026-05-05 13:07 | 42.38690 | 11.57470 | 15040 ft | 384 kts | 146° |
| 2026-05-05 13:07 | 42.36558 | 11.59431 | 15095 ft | 367 kts | 153° |
| 2026-05-05 13:07 | 42.34329 | 11.61053 | 15052 ft | 354 kts | 158° |
| 2026-05-05 13:08 | 42.32141 | 11.62422 | 14454 ft | 343 kts | 161° |
| 2026-05-05 13:08 | 42.29947 | 11.63647 | 13680 ft | 339 kts | 163° |
| 2026-05-05 13:08 | 42.27784 | 11.64774 | 12913 ft | 336 kts | 165° |
| 2026-05-05 13:08 | 42.25600 | 11.65846 | 12137 ft | 332 kts | 166° |
| 2026-05-05 13:09 | 42.23420 | 11.66847 | 11362 ft | 330 kts | 166° |
| 2026-05-05 13:09 | 42.21283 | 11.67908 | 10564 ft | 306 kts | 164° |
| 2026-05-05 13:09 | 42.19396 | 11.68861 | 9783 ft | 276 kts | 165° |
| 2026-05-05 13:09 | 42.17663 | 11.69682 | 9067 ft | 261 kts | 166° |
| 2026-05-05 13:10 | 42.16025 | 11.70425 | 9106 ft | 246 kts | 166° |
| 2026-05-05 13:10 | 42.14391 | 11.71147 | 9079 ft | 248 kts | 166° |
| 2026-05-05 13:10 | 42.12744 | 11.71862 | 9072 ft | 248 kts | 167° |
| 2026-05-05 13:10 | 42.11135 | 11.72556 | 9071 ft | 248 kts | 167° |
| 2026-05-05 13:11 | 42.10131 | 11.72988 | 9069 ft | 248 kts | 167° |
| 2026-05-05 13:11 | 42.08524 | 11.73858 | 9029 ft | 255 kts | 152° |
| 2026-05-05 13:11 | 42.07372 | 11.75682 | 9064 ft | 264 kts | 119° |
| 2026-05-05 13:11 | 42.07066 | 11.78141 | 9072 ft | 273 kts | 87° |
| 2026-05-05 13:12 | 42.07450 | 11.80650 | 9087 ft | 275 kts | 79° |
| 2026-05-05 13:12 | 42.07956 | 11.83130 | 9060 ft | 276 kts | 66° |
| 2026-05-05 13:12 | 42.09169 | 11.85060 | 9071 ft | 272 kts | 33° |
| 2026-05-05 13:12 | 42.10909 | 11.85894 | 9069 ft | 264 kts | 1° |
| 2026-05-05 13:13 | 42.12707 | 11.85609 | 9103 ft | 261 kts | 345° |
| 2026-05-05 13:13 | 42.14466 | 11.85099 | 9083 ft | 259 kts | 341° |
| 2026-05-05 13:13 | 42.16204 | 11.84449 | 9076 ft | 257 kts | 339° |
| 2026-05-05 13:13 | 42.17904 | 11.83750 | 9075 ft | 256 kts | 338° |
| 2026-05-05 13:14 | 42.19602 | 11.83034 | 9076 ft | 255 kts | 338° |
| 2026-05-05 13:14 | 42.21295 | 11.82305 | 9075 ft | 255 kts | 338° |
| 2026-05-05 13:14 | 42.22981 | 11.81579 | 9076 ft | 255 kts | 338° |
| 2026-05-05 13:14 | 42.24672 | 11.80852 | 9082 ft | 255 kts | 338° |
| 2026-05-05 13:15 | 42.26363 | 11.80125 | 9077 ft | 255 kts | 338° |
| 2026-05-05 13:15 | 42.28079 | 11.79482 | 9067 ft | 258 kts | 347° |
| 2026-05-05 13:15 | 42.29865 | 11.79832 | 9077 ft | 266 kts | 19° |
| 2026-05-05 13:15 | 42.31327 | 11.81394 | 9093 ft | 273 kts | 49° |
| 2026-05-05 13:16 | 42.32415 | 11.83520 | 9063 ft | 276 kts | 58° |
| 2026-05-05 13:16 | 42.33350 | 11.85771 | 9046 ft | 275 kts | 62° |
| 2026-05-05 13:16 | 42.34139 | 11.88113 | 9033 ft | 274 kts | 74° |
| 2026-05-05 13:16 | 42.34154 | 11.90631 | 9051 ft | 268 kts | 107° |
| 2026-05-05 13:17 | 42.33243 | 11.92759 | 9059 ft | 261 kts | 139° |
| 2026-05-05 13:17 | 42.31807 | 11.94213 | 9068 ft | 258 kts | 152° |
| 2026-05-05 13:17 | 42.30261 | 11.95426 | 9057 ft | 255 kts | 156° |
| 2026-05-05 13:17 | 42.28690 | 11.96508 | 9055 ft | 253 kts | 158° |
| 2026-05-05 13:18 | 42.27095 | 11.97498 | 9053 ft | 252 kts | 160° |
| 2026-05-05 13:18 | 42.25464 | 11.98431 | 8723 ft | 258 kts | 162° |
| 2026-05-05 13:18 | 42.23813 | 11.99319 | 8301 ft | 252 kts | 163° |
| 2026-05-05 13:18 | 42.22195 | 12.00147 | 7862 ft | 246 kts | 164° |
| 2026-05-05 13:19 | 42.20600 | 12.00926 | 7409 ft | 241 kts | 165° |
| 2026-05-05 13:19 | 42.19030 | 12.01672 | 6976 ft | 237 kts | 165° |
| 2026-05-05 13:19 | 42.17485 | 12.02403 | 6541 ft | 234 kts | 163° |
| 2026-05-05 13:19 | 42.15975 | 12.03195 | 6190 ft | 228 kts | 163° |
| 2026-05-05 13:20 | 42.14496 | 12.03866 | 6084 ft | 225 kts | 163° |
| 2026-05-05 13:20 | 42.13255 | 12.05122 | 6002 ft | 230 kts | 135° |
| 2026-05-05 13:20 | 42.12249 | 12.06889 | 5623 ft | 237 kts | 128° |
| 2026-05-05 13:20 | 42.11360 | 12.08712 | 5201 ft | 230 kts | 126° |
| 2026-05-05 13:21 | 42.10537 | 12.10499 | 4766 ft | 224 kts | 125° |
| 2026-05-05 13:21 | 42.09738 | 12.12268 | 4310 ft | 219 kts | 125° |
| 2026-05-05 13:21 | 42.08960 | 12.13974 | 4085 ft | 206 kts | 127° |
| 2026-05-05 13:21 | 42.08101 | 12.15485 | 4019 ft | 202 kts | 134° |
| 2026-05-05 13:22 | 42.07186 | 12.16653 | 4009 ft | 199 kts | 144° |
| 2026-05-05 13:22 | 42.06020 | 12.17626 | 4008 ft | 197 kts | 155° |
| 2026-05-05 13:22 | 42.04735 | 12.18264 | 4007 ft | 196 kts | 165° |
| 2026-05-05 13:22 | 42.03409 | 12.18674 | 4027 ft | 196 kts | 169° |
| 2026-05-05 13:23 | 42.02064 | 12.19008 | 4011 ft | 196 kts | 170° |
| 2026-05-05 13:23 | 42.00705 | 12.19384 | 3721 ft | 212 kts | 168° |
| 2026-05-05 13:23 | 41.99706 | 12.19678 | 3377 ft | 219 kts | 167° |
| 2026-05-05 13:23 | 41.98261 | 12.20239 | 3175 ft | 210 kts | 161° |
| 2026-05-05 13:24 | 41.96968 | 12.20965 | 3070 ft | 200 kts | 158° |
| 2026-05-05 13:24 | 41.95814 | 12.21604 | 3444 ft | 164 kts | 161° |
| 2026-05-05 13:24 | 41.94670 | 12.22088 | 3537 ft | 180 kts | 171° |
| 2026-05-05 13:24 | 41.93407 | 12.22404 | 3290 ft | 189 kts | 166° |
| 2026-05-05 13:25 | 41.92159 | 12.22929 | 2879 ft | 185 kts | 160° |
| 2026-05-05 13:25 | 41.90983 | 12.23537 | 2442 ft | 173 kts | 161° |
| 2026-05-05 13:25 | 41.89899 | 12.23996 | 1967 ft | 152 kts | 166° |
| 2026-05-05 13:25 | 41.88962 | 12.24268 | 1521 ft | 128 kts | 159° |
| 2026-05-05 13:26 | 41.88137 | 12.24647 | 1135 ft | 122 kts | 159° |
| 2026-05-05 13:26 | 41.87352 | 12.25036 | 755 ft | 120 kts | 160° |
| 2026-05-05 13:26 | 41.86572 | 12.25377 | 432 ft | 114 kts | 166° |
| 2026-05-05 13:26 | 41.85777 | 12.25644 | 340 ft | 118 kts | 160° |
| 2026-05-05 13:27 | 41.85039 | 12.25965 | 157 ft | 111 kts | 161° |
| 2026-05-05 13:27 | 41.84300 | 12.26273 | 46 ft | 107 kts | 161° |
| 2026-05-05 13:27 | 41.83619 | 12.26559 | 25 ft | 93 kts | 161° |
| 2026-05-05 13:27 | 41.83094 | 12.26780 | 25 ft | 62 kts | 163° |
| 2026-05-05 13:28 | 41.82754 | 12.26897 | 25 ft | 39 kts | 191° |
| 2026-05-05 13:28 | 41.82571 | 12.26836 | 25 ft | 23 kts | 193° |
| 2026-05-05 13:28 | 41.82434 | 12.26795 | 25 ft | 18 kts | 191° |
| 2026-05-05 13:28 | 41.82324 | 12.26787 | 25 ft | 15 kts | 170° |
| 2026-05-05 13:29 | 41.82216 | 12.26823 | 25 ft | 17 kts | 163° |
| 2026-05-05 13:29 | 41.82095 | 12.26876 | 25 ft | 20 kts | 162° |
| 2026-05-05 13:29 | 41.81942 | 12.26942 | 25 ft | 26 kts | 162° |
| 2026-05-05 13:29 | 41.81750 | 12.27026 | 25 ft | 32 kts | 161° |
| 2026-05-05 13:30 | 41.81521 | 12.27120 | 25 ft | 37 kts | 162° |
| 2026-05-05 13:30 | 41.81271 | 12.27231 | 25 ft | 36 kts | 161° |
| 2026-05-05 13:30 | 41.81043 | 12.27317 | 25 ft | 32 kts | 165° |
| 2026-05-05 13:30 | 41.80842 | 12.27349 | 25 ft | 27 kts | 192° |
| 2026-05-05 13:31 | 41.80686 | 12.27275 | 25 ft | 21 kts | 234° |
| 2026-05-05 13:31 | 41.80635 | 12.27113 | 25 ft | 17 kts | 246° |
| 2026-05-05 13:31 | 41.80592 | 12.26974 | 25 ft | 15 kts | 248° |
| 2026-05-05 13:31 | 41.80555 | 12.26834 | 25 ft | 17 kts | 255° |
| 2026-05-05 13:32 | 41.80515 | 12.26682 | 25 ft | 19 kts | 245° |
| 2026-05-05 13:32 | 41.80455 | 12.26506 | 25 ft | 23 kts | 249° |
| 2026-05-05 13:32 | 41.80400 | 12.26286 | 25 ft | 27 kts | 248° |
| 2026-05-05 13:32 | 41.80352 | 12.26121 | 25 ft | 0 kts | 249° |
| 2026-05-05 13:34 | 41.80349 | 12.26111 | 25 ft | 3 kts | 249° |
| 2026-05-05 13:35 | 41.80333 | 12.26079 | 25 ft | 6 kts | 204° |
| 2026-05-05 13:35 | 41.80261 | 12.26057 | 25 ft | 19 kts | 201° |
| 2026-05-05 13:35 | 41.80128 | 12.25981 | 25 ft | 21 kts | 204° |
| 2026-05-05 13:35 | 41.79983 | 12.25898 | 25 ft | 24 kts | 202° |
| 2026-05-05 13:36 | 41.79826 | 12.25803 | 25 ft | 24 kts | 203° |